createdAt,value
2022-11-10T00:02:24.478Z,52.85
2022-11-10T00:05:11.763Z,53.13
2022-11-10T00:08:03.086Z,53.14
2022-11-10T00:11:01.910Z,53.32
2022-11-10T00:14:07.291Z,53.51
2022-11-10T00:17:04.694Z,53.71
2022-11-10T00:19:52.375Z,53.49
2022-11-10T00:22:40.602Z,53.74
2022-11-10T00:25:28.943Z,53.84
2022-11-10T00:28:17.158Z,54.17
2022-11-10T00:31:07.201Z,53.99
2022-11-10T00:33:54.044Z,53.92
2022-11-10T00:36:41.599Z,54.17
2022-11-10T00:39:28.412Z,54.27
2022-11-10T00:42:15.706Z,54.17
2022-11-10T00:45:04.431Z,54.41
2022-11-10T00:47:51.644Z,54.19
2022-11-10T00:50:38.762Z,54.14
2022-11-10T00:53:26.251Z,53.69
2022-11-10T00:56:13.163Z,54.64
2022-11-10T00:59:00.495Z,54.60
2022-11-10T01:01:48.578Z,53.97
2022-11-10T01:04:36.039Z,53.76
2022-11-10T01:07:23.023Z,53.71
2022-11-10T01:10:10.289Z,53.84
2022-11-10T01:12:57.398Z,53.33
2022-11-10T01:15:44.778Z,53.79
2022-11-10T01:18:33.074Z,53.87
2022-11-10T01:21:20.663Z,53.94
2022-11-10T01:24:07.890Z,53.85
2022-11-10T01:26:54.863Z,53.99
2022-11-10T01:29:41.560Z,53.92
2022-11-10T01:32:28.659Z,54.57
2022-11-10T01:35:17.098Z,54.41
2022-11-10T01:38:04.236Z,55.12
2022-11-10T01:40:51.083Z,54.77
2022-11-10T01:43:39.170Z,55.46
2022-11-10T01:46:26.324Z,55.15
2022-11-10T01:49:16.673Z,54.75
2022-11-10T01:52:08.724Z,55.21
2022-11-10T01:54:56.274Z,55.69
2022-11-10T01:57:43.633Z,54.62
2022-11-10T02:00:31.049Z,54.96
2022-11-10T02:03:22.966Z,54.79
2022-11-10T02:06:12.116Z,55.19
2022-11-10T02:09:00.525Z,55.00
2022-11-10T02:11:48.722Z,55.94
2022-11-10T02:14:35.740Z,56.46
2022-11-10T02:17:23.031Z,56.65
2022-11-10T02:20:11.965Z,56.30
2022-11-10T02:23:00.550Z,56.13
2022-11-10T02:25:47.392Z,55.55
2022-11-10T02:28:36.188Z,55.39
2022-11-10T02:31:22.964Z,54.99
2022-11-10T02:34:10.000Z,54.94
2022-11-10T02:36:56.912Z,54.46
2022-11-10T02:39:45.485Z,54.20
2022-11-10T02:42:32.590Z,54.14
2022-11-10T02:45:19.584Z,53.98
2022-11-10T02:48:06.944Z,53.84
2022-11-10T02:50:54.057Z,53.86
2022-11-10T02:53:40.694Z,54.29
2022-11-10T02:56:29.617Z,53.83
2022-11-10T02:59:16.580Z,53.70
2022-11-10T03:02:03.979Z,53.37
2022-11-10T03:04:50.975Z,53.46
2022-11-10T03:07:37.854Z,54.09
2022-11-10T03:10:25.527Z,53.43
2022-11-10T03:13:14.114Z,54.25
2022-11-10T03:16:00.881Z,55.89
2022-11-10T03:18:47.880Z,58.23
2022-11-10T03:21:35.195Z,58.09
2022-11-10T03:24:22.337Z,58.71
2022-11-10T03:27:09.262Z,60.18
2022-11-10T03:29:58.007Z,62.21
2022-11-10T03:32:44.975Z,63.50
2022-11-10T03:35:32.312Z,64.30
2022-11-10T03:38:19.022Z,64.95
2022-11-10T03:41:21.813Z,66.17
2022-11-10T03:44:08.596Z,66.06
2022-11-10T03:46:57.011Z,66.41
2022-11-10T03:49:44.115Z,66.25
2022-11-10T03:52:31.434Z,66.14
2022-11-10T03:55:19.829Z,66.65
2022-11-10T03:58:07.278Z,66.46
2022-11-10T04:00:54.959Z,66.88
2022-11-10T04:03:47.458Z,66.12
2022-11-10T04:07:06.220Z,66.15
2022-11-10T04:09:53.437Z,64.95
2022-11-10T04:12:57.995Z,64.50
2022-11-10T04:15:45.780Z,64.05
2022-11-10T04:18:32.616Z,62.61
2022-11-10T04:21:21.617Z,61.56
2022-11-10T04:24:10.000Z,60.48
2022-11-10T04:26:57.090Z,59.56
2022-11-10T04:29:44.262Z,58.66
2022-11-10T04:32:31.632Z,58.33
2022-11-10T04:35:18.826Z,57.54
2022-11-10T04:38:07.515Z,57.30
2022-11-10T04:40:54.826Z,56.86
2022-11-10T04:43:43.130Z,57.14
2022-11-10T04:46:32.311Z,56.93
2022-11-10T04:49:19.595Z,57.15
2022-11-10T04:52:06.631Z,56.72
2022-11-10T04:54:55.253Z,56.45
2022-11-10T04:57:43.672Z,56.29
2022-11-10T05:00:31.168Z,56.16
2022-11-10T05:03:18.490Z,55.78
2022-11-10T05:06:05.843Z,55.69
2022-11-10T05:08:53.295Z,55.89
2022-11-10T05:11:41.606Z,56.04
2022-11-10T05:14:28.640Z,56.11
2022-11-10T05:17:15.565Z,56.29
2022-11-10T05:20:02.545Z,56.20
2022-11-10T05:23:05.027Z,56.12
2022-11-10T05:25:52.239Z,56.10
2022-11-10T05:28:41.958Z,56.33
2022-11-10T05:31:30.313Z,55.84
2022-11-10T05:34:17.351Z,55.71
2022-11-10T05:37:04.599Z,55.74
2022-11-10T05:39:51.623Z,56.17
2022-11-10T05:42:44.138Z,55.85
2022-11-10T05:45:33.828Z,55.86
2022-11-10T05:48:20.794Z,54.86
2022-11-10T05:51:07.993Z,55.04
2022-11-10T05:53:55.053Z,55.10
2022-11-10T05:56:42.298Z,54.90
2022-11-10T05:59:29.126Z,55.18
2022-11-10T06:02:17.781Z,55.15
2022-11-10T06:05:05.236Z,54.52
2022-11-10T06:07:52.543Z,55.32
2022-11-10T06:10:40.134Z,55.43
2022-11-10T06:13:27.488Z,55.17
2022-11-10T06:16:14.470Z,55.66
2022-11-10T06:19:02.924Z,55.81
2022-11-10T06:21:49.836Z,55.50
2022-11-10T06:24:37.295Z,55.02
2022-11-10T06:27:24.142Z,55.06
2022-11-10T06:30:13.058Z,54.41
2022-11-10T06:33:00.130Z,53.61
2022-11-10T06:35:48.889Z,53.87
2022-11-10T06:38:37.050Z,53.81
2022-11-10T06:41:25.580Z,55.28
2022-11-10T06:44:13.083Z,56.12
2022-11-10T06:47:00.502Z,57.67
2022-11-10T06:49:47.185Z,59.13
2022-11-10T06:52:36.167Z,59.00
2022-11-10T06:55:23.199Z,58.56
2022-11-10T06:58:10.654Z,59.03
2022-11-10T07:01:00.777Z,58.03
2022-11-10T07:04:13.036Z,56.69
2022-11-10T07:06:55.001Z,56.69
2022-11-10T07:09:43.797Z,55.52
2022-11-10T07:12:30.716Z,55.32
2022-11-10T07:15:17.904Z,55.20
2022-11-10T07:18:05.969Z,54.87
2022-11-10T07:20:53.097Z,54.85
2022-11-10T07:23:40.024Z,54.38
2022-11-10T07:26:28.453Z,54.89
2022-11-10T07:29:15.359Z,54.27
2022-11-10T07:32:02.608Z,53.59
2022-11-10T07:34:49.651Z,52.93
2022-11-10T07:37:37.143Z,52.11
2022-11-10T07:40:24.343Z,51.90
2022-11-10T07:43:13.439Z,51.40
2022-11-10T07:46:00.991Z,51.22
2022-11-10T07:48:48.209Z,50.72
2022-11-10T07:51:35.672Z,51.73
2022-11-10T07:54:22.808Z,53.29
2022-11-10T07:57:09.748Z,53.83
2022-11-10T07:59:58.382Z,54.01
2022-11-10T08:02:45.259Z,53.19
2022-11-10T08:05:32.899Z,53.09
2022-11-10T08:08:20.410Z,53.08
2022-11-10T08:11:07.570Z,51.71
2022-11-10T08:13:54.569Z,51.32
2022-11-10T08:16:43.532Z,51.07
2022-11-10T08:19:30.474Z,48.71
2022-11-10T08:22:17.817Z,48.51
2022-11-10T08:25:05.047Z,49.53
2022-11-10T08:27:59.120Z,48.39
2022-11-10T08:30:47.904Z,49.68
2022-11-10T08:33:36.688Z,49.43
2022-11-10T08:36:24.069Z,49.61
2022-11-10T08:39:13.243Z,48.47
2022-11-10T08:42:06.431Z,48.14
2022-11-10T08:44:54.328Z,47.58
2022-11-10T08:47:41.678Z,47.00
2022-11-10T08:50:30.860Z,46.70
2022-11-10T08:53:20.552Z,46.17
2022-11-10T08:56:08.846Z,45.85
2022-11-10T08:58:55.756Z,45.66
2022-11-10T09:01:43.256Z,45.40
2022-11-10T09:04:30.121Z,45.13
2022-11-10T09:07:19.317Z,44.95
2022-11-10T09:10:08.177Z,44.19
2022-11-10T09:12:55.943Z,43.62
2022-11-10T09:15:43.657Z,43.80
2022-11-10T09:18:31.426Z,43.96
2022-11-10T09:21:18.508Z,43.99
2022-11-10T09:24:08.386Z,43.37
2022-11-10T09:26:55.793Z,43.29
2022-11-10T09:29:43.143Z,42.92
2022-11-10T09:32:32.180Z,43.17
2022-11-10T09:35:19.748Z,43.34
2022-11-10T09:38:06.757Z,43.39
2022-11-10T09:44:01.871Z,43.05
2022-11-10T09:46:53.733Z,42.81
2022-11-10T09:49:45.744Z,42.34
2022-11-10T09:52:36.257Z,42.53
2022-11-10T09:55:34.685Z,42.83
2022-11-10T09:58:28.146Z,42.13
2022-11-10T10:01:27.426Z,42.27
2022-11-10T10:04:31.107Z,41.81
2022-11-10T10:07:25.171Z,41.54
2022-11-10T10:10:19.080Z,41.29
2022-11-10T10:13:44.415Z,41.25
2022-11-10T10:16:41.463Z,41.73
2022-11-10T10:19:36.809Z,41.32
2022-11-10T10:22:47.158Z,41.10
2022-11-10T10:25:34.532Z,40.84
2022-11-10T10:28:30.324Z,40.73
2022-11-10T10:31:22.475Z,40.66
2022-11-10T10:34:15.456Z,40.47
2022-11-10T10:37:02.560Z,40.76
2022-11-10T10:39:53.022Z,40.10
2022-11-10T10:42:40.039Z,39.60
2022-11-10T10:45:29.274Z,39.49
2022-11-10T10:48:28.065Z,38.94
2022-11-10T10:51:29.889Z,38.11
2022-11-10T10:54:29.340Z,38.27
2022-11-10T10:57:24.606Z,38.18
2022-11-10T11:00:21.154Z,38.23
2022-11-10T11:03:15.267Z,37.72
2022-11-10T11:06:08.172Z,37.87
2022-11-10T11:08:59.707Z,38.65
2022-11-10T11:12:01.352Z,40.70
2022-11-10T11:14:49.235Z,41.54
2022-11-10T11:17:36.420Z,42.56
2022-11-10T11:20:33.817Z,41.92
2022-11-10T11:23:43.144Z,41.06
2022-11-10T11:26:40.429Z,40.16
2022-11-10T11:29:42.444Z,41.83
2022-11-10T11:32:50.897Z,42.82
2022-11-10T11:35:47.097Z,43.00
2022-11-10T11:38:49.127Z,42.09
2022-11-10T11:41:47.693Z,43.47
2022-11-10T11:44:50.612Z,42.13
2022-11-10T11:47:49.815Z,42.94
2022-11-10T11:50:43.810Z,43.22
2022-11-10T11:53:48.455Z,43.45
2022-11-10T11:56:41.782Z,43.82
2022-11-10T11:59:43.931Z,43.21
2022-11-10T12:02:52.668Z,43.76
2022-11-10T12:05:53.820Z,43.61
2022-11-10T12:08:53.422Z,43.59
2022-11-10T12:11:57.816Z,44.58
2022-11-10T12:14:55.017Z,45.47
2022-11-10T12:17:54.054Z,45.73
2022-11-10T12:20:52.879Z,46.02
2022-11-10T12:23:50.621Z,46.45
2022-11-10T12:26:49.385Z,46.01
2022-11-10T12:29:42.543Z,46.30
2022-11-10T12:32:33.474Z,46.19
2022-11-10T12:35:24.465Z,47.67
2022-11-10T12:38:18.889Z,48.21
2022-11-10T12:41:12.419Z,47.50
2022-11-10T12:44:07.472Z,47.59
2022-11-10T12:46:58.533Z,47.98
2022-11-10T12:49:57.544Z,48.11
2022-11-10T12:52:51.588Z,47.87
2022-11-10T12:55:44.008Z,46.72
2022-11-10T12:58:32.198Z,45.02
2022-11-10T13:01:21.666Z,44.24
2022-11-10T13:04:08.979Z,44.80
2022-11-10T13:07:00.075Z,46.19
2022-11-10T13:09:47.525Z,44.86
2022-11-10T13:12:35.040Z,44.14
2022-11-10T13:15:50.576Z,45.35
2022-11-10T13:18:59.285Z,47.15
2022-11-10T13:22:11.712Z,49.06
2022-11-10T13:25:36.428Z,49.25
2022-11-10T13:29:03.153Z,48.25
2022-11-10T13:31:54.667Z,47.74
2022-11-10T13:34:42.707Z,47.42
2022-11-10T13:37:50.689Z,48.75
2022-11-10T13:40:39.741Z,49.70
2022-11-10T13:43:28.754Z,50.93
2022-11-10T13:46:15.994Z,50.88
2022-11-10T13:49:31.921Z,50.99
2022-11-10T13:52:25.261Z,50.60
2022-11-10T13:55:22.746Z,50.95
2022-11-10T13:58:13.721Z,51.30
2022-11-10T14:01:30.632Z,51.40
2022-11-10T14:04:41.608Z,51.47
2022-11-10T14:07:32.667Z,51.39
2022-11-10T14:10:27.974Z,52.40
2022-11-10T14:13:20.517Z,51.01
2022-11-10T14:16:18.090Z,50.79
2022-11-10T14:19:19.472Z,50.80
2022-11-10T14:22:21.872Z,49.91
2022-11-10T14:25:22.015Z,50.18
2022-11-10T14:28:25.668Z,50.99
2022-11-10T14:31:20.443Z,50.75
2022-11-10T14:34:07.305Z,50.58
2022-11-10T14:36:57.044Z,52.62
2022-11-10T14:39:45.347Z,51.08
2022-11-10T14:42:35.012Z,50.61
2022-11-10T14:45:24.930Z,50.40
2022-11-10T14:48:20.445Z,50.84
2022-11-10T14:51:13.219Z,52.66
2022-11-10T14:54:00.418Z,55.12
2022-11-10T14:56:49.086Z,54.98
2022-11-10T14:59:38.993Z,54.19
2022-11-10T15:02:26.244Z,53.66
2022-11-10T15:05:16.511Z,55.94
2022-11-10T15:08:05.340Z,55.07
2022-11-10T15:10:56.284Z,56.47
2022-11-10T15:13:44.660Z,57.98
2022-11-10T15:16:34.325Z,59.12
2022-11-10T15:19:24.181Z,59.33
2022-11-10T15:22:18.700Z,60.61
2022-11-10T15:25:14.748Z,59.65
2022-11-10T15:28:04.651Z,59.67
2022-11-10T15:30:56.452Z,58.72
2022-11-10T15:33:48.452Z,58.39
2022-11-10T15:36:39.749Z,58.13
2022-11-10T15:39:28.790Z,57.44
2022-11-10T15:42:18.867Z,57.99
2022-11-10T15:45:07.539Z,58.56
2022-11-10T15:47:57.499Z,57.98
2022-11-10T15:50:47.673Z,59.26
2022-11-10T15:53:38.625Z,58.25
2022-11-10T15:56:26.291Z,63.35
2022-11-10T15:59:13.583Z,63.84
2022-11-10T16:02:01.280Z,63.50
2022-11-10T16:04:55.618Z,63.30
2022-11-10T16:07:46.209Z,64.00
2022-11-10T16:10:33.441Z,63.40
2022-11-10T16:13:24.958Z,62.44
2022-11-10T16:16:14.346Z,63.18
2022-11-10T16:19:02.149Z,64.53
2022-11-10T16:21:50.753Z,63.13
2022-11-10T16:24:38.068Z,65.77
2022-11-10T16:27:25.024Z,65.06
2022-11-10T16:30:14.987Z,63.91
2022-11-10T16:33:02.149Z,63.41
2022-11-10T16:35:51.924Z,65.60
2022-11-10T16:38:40.582Z,67.45
2022-11-10T16:41:27.924Z,68.30
2022-11-10T16:44:16.876Z,70.69
2022-11-10T16:47:04.741Z,71.17
2022-11-10T16:49:52.510Z,70.34
2022-11-10T16:52:40.825Z,68.65
2022-11-10T16:55:29.598Z,68.51
2022-11-10T16:58:17.103Z,67.41
2022-11-10T17:01:05.361Z,65.43
2022-11-10T17:03:55.486Z,66.98
2022-11-10T17:06:43.343Z,69.19
2022-11-10T17:09:31.871Z,71.24
2022-11-10T17:12:20.508Z,70.08
2022-11-10T17:15:08.888Z,69.39
2022-11-10T17:17:58.871Z,69.71
2022-11-10T17:20:51.021Z,69.17
2022-11-10T17:23:38.347Z,68.76
2022-11-10T17:26:26.330Z,68.38
2022-11-10T17:29:21.200Z,68.63
2022-11-10T17:32:08.840Z,67.19
2022-11-10T17:34:55.883Z,67.94
2022-11-10T17:37:46.965Z,66.94
2022-11-10T17:40:34.059Z,67.70
2022-11-10T17:43:23.147Z,67.61
2022-11-10T17:46:12.635Z,66.71
2022-11-10T17:49:03.008Z,69.16
2022-11-10T17:51:50.629Z,71.21
2022-11-10T17:54:38.183Z,68.96
2022-11-10T17:57:25.383Z,66.70
2022-11-10T18:00:14.774Z,66.25
2022-11-10T18:03:08.502Z,66.07
2022-11-10T18:05:56.373Z,65.89
2022-11-10T18:08:43.234Z,65.23
2022-11-10T18:11:30.264Z,67.49
2022-11-10T18:14:17.187Z,68.96
2022-11-10T18:17:04.502Z,68.68
2022-11-10T18:19:52.958Z,71.96
2022-11-10T18:22:40.870Z,71.55
2022-11-10T18:25:27.989Z,71.60
2022-11-10T18:28:16.343Z,73.77
2022-11-10T18:31:08.063Z,75.04
2022-11-10T18:33:55.448Z,73.42
2022-11-10T18:36:44.393Z,73.91
2022-11-10T18:39:31.863Z,72.34
2022-11-10T18:42:18.955Z,71.07
2022-11-10T18:45:07.874Z,74.96
2022-11-10T18:47:55.366Z,75.48
2022-11-10T18:50:43.955Z,75.52
2022-11-10T18:53:38.079Z,76.47
2022-11-10T18:56:26.067Z,72.93
2022-11-10T18:59:15.255Z,71.34
2022-11-10T19:02:02.958Z,70.55
2022-11-10T19:04:53.527Z,68.19
2022-11-10T19:07:41.319Z,66.73
2022-11-10T19:10:29.854Z,69.51
2022-11-10T19:13:17.639Z,68.16
2022-11-10T19:16:06.373Z,68.12
2022-11-10T19:18:55.022Z,66.75
2022-11-10T19:21:43.499Z,64.98
2022-11-10T19:24:42.406Z,65.42
2022-11-10T19:27:41.001Z,65.42
2022-11-10T19:30:28.856Z,64.95
2022-11-10T19:33:16.240Z,65.33
2022-11-10T19:36:04.878Z,64.59
2022-11-10T19:38:52.819Z,63.58
2022-11-10T19:41:40.331Z,63.80
2022-11-10T19:44:29.595Z,67.39
2022-11-10T19:47:18.692Z,68.82
2022-11-10T19:50:07.427Z,69.18
2022-11-10T19:52:55.248Z,69.58
2022-11-10T19:55:44.027Z,69.22
2022-11-10T19:58:33.929Z,69.09
2022-11-10T20:01:23.133Z,69.50
2022-11-10T20:04:12.573Z,68.17
2022-11-10T20:07:17.230Z,69.34
2022-11-10T20:10:06.168Z,68.83
2022-11-10T20:12:53.697Z,68.19
2022-11-10T20:15:41.937Z,69.23
2022-11-10T20:18:30.758Z,70.24
2022-11-10T20:21:23.523Z,69.41
2022-11-10T20:24:14.908Z,69.55
2022-11-10T20:27:03.274Z,70.49
2022-11-10T20:29:50.289Z,72.07
2022-11-10T20:32:37.923Z,72.10
2022-11-10T20:35:26.879Z,72.81
2022-11-10T20:38:16.545Z,72.19
2022-11-10T20:41:06.430Z,72.34
2022-11-10T20:43:54.983Z,72.85
2022-11-10T20:46:54.320Z,72.61
2022-11-10T20:49:43.024Z,72.99
2022-11-10T20:52:34.189Z,73.28
2022-11-10T20:55:43.704Z,72.67
2022-11-10T20:58:29.892Z,71.90
2022-11-10T21:01:17.339Z,71.73
2022-11-10T21:04:06.174Z,71.69
2022-11-10T21:06:53.783Z,72.20
2022-11-10T21:09:42.231Z,72.04
2022-11-10T21:12:46.640Z,72.56
2022-11-10T21:15:34.137Z,72.54
2022-11-10T21:18:21.980Z,73.10
2022-11-10T21:21:22.589Z,73.32
2022-11-10T21:24:11.376Z,73.26
2022-11-10T21:27:00.765Z,73.00
2022-11-10T21:29:49.123Z,72.16
2022-11-10T21:32:36.507Z,72.85
2022-11-10T21:35:24.227Z,72.33
2022-11-10T21:38:13.808Z,74.84
2022-11-10T21:41:01.479Z,75.65
2022-11-10T21:43:50.329Z,76.52
2022-11-10T21:46:38.146Z,76.61
2022-11-10T21:49:25.305Z,76.73
2022-11-10T21:52:13.140Z,76.88
2022-11-10T21:55:00.517Z,76.36
2022-11-10T21:58:09.992Z,77.56
2022-11-10T22:01:24.489Z,77.35
2022-11-10T22:04:17.168Z,76.20
2022-11-10T22:07:21.526Z,75.71
2022-11-10T22:10:48.234Z,73.06
2022-11-10T22:13:52.786Z,70.95
2022-11-10T22:17:04.217Z,70.99
2022-11-10T22:19:51.651Z,71.12
2022-11-10T22:22:42.362Z,72.15
2022-11-10T22:25:31.003Z,72.74
2022-11-10T22:28:20.768Z,73.53
2022-11-10T22:31:09.968Z,75.79
2022-11-10T22:33:59.512Z,78.01
2022-11-10T22:36:47.396Z,78.33
2022-11-10T22:39:52.572Z,78.50
2022-11-10T22:42:57.507Z,78.91
2022-11-10T22:45:46.088Z,78.42
2022-11-10T22:48:34.885Z,78.49
2022-11-10T22:51:25.142Z,81.00
2022-11-10T22:54:14.334Z,81.29
2022-11-10T22:57:02.434Z,81.78
2022-11-10T22:59:50.056Z,81.30
2022-11-10T23:02:37.926Z,80.66
2022-11-10T23:05:25.201Z,82.71
2022-11-10T23:08:14.362Z,81.92
2022-11-10T23:11:03.393Z,81.15
2022-11-10T23:13:51.630Z,82.08
2022-11-10T23:16:39.079Z,82.10
2022-11-10T23:19:26.752Z,80.96
2022-11-10T23:22:13.661Z,80.89
2022-11-10T23:25:02.818Z,80.84
2022-11-10T23:27:50.011Z,77.47
2022-11-10T23:30:37.619Z,78.58
2022-11-10T23:33:31.379Z,79.02
2022-11-10T23:36:21.763Z,79.52
2022-11-10T23:39:08.916Z,79.49
2022-11-10T23:41:57.937Z,77.87
2022-11-10T23:44:45.625Z,75.86
2022-11-10T23:47:33.120Z,73.94
2022-11-10T23:50:21.189Z,72.37
2022-11-10T23:53:09.300Z,72.61
2022-11-10T23:56:00.757Z,73.33
2022-11-10T23:58:49.424Z,73.10
